CheckWX is a tool to help pilots better visualize weather data.  It is not intended as a substitute for an official pre-flight weather briefing.

20:06:14 UTC

KCSM TAF
Clinton-Sherman Airport
Burns Flat, Oklahoma, USA
KCSM 221739Z 2218/2318 35011KT P6SM OVC010 FM230200 01008KT P6SM BKN050 BKN100 TEMPO 2307/2311 BKN020 FM231100 27010KT P6SM SCT070

Nov-22@
18:00 UTC

Nov-22 @ 18:00 UTC

Nov-23@
02:00 UTC

Nov-23 @ 02:00 UTC

KCSM 221739Z 2218/2318 35011KT P6SM OVC010
Wind
  • 350° at 11 KTS
Cloud Levels
  • Overcast at 1,000' AGL

Nov-23@
02:00 UTC

Nov-23 @ 02:00 UTC

Nov-23@
11:00 UTC

Nov-23 @ 11:00 UTC

FM230200 01008KT P6SM BKN050 BKN100

From

From Standard forecast or significant change

Wind
  • 010° at 8 KTS
Cloud Levels
  • Broken at 5,000' AGL
  • Broken at 10,000' AGL

Nov-23@
07:00 UTC

Nov-23 @ 07:00 UTC

Nov-23@
11:00 UTC

Nov-23 @ 11:00 UTC

TEMPO 2307/2311 BKN020

Temporary

Temporary Changes expected for less than half the time period

Cloud Levels
  • Broken at 2,000' AGL

Nov-23@
11:00 UTC

Nov-23 @ 11:00 UTC

Nov-23@
18:00 UTC

Nov-23 @ 18:00 UTC

FM231100 27010KT P6SM SCT070

From

From Standard forecast or significant change

Wind
  • 270° at 10 KTS
Cloud Levels
  • Scattered at 7,000' AGL